sensor_id;sensor_type;location;lat;lon;timestamp;pressure;altitude;pressure_sealevel;temperature;humidity
75521;BME280;64102;48.628;9.002;2024-02-21T00:00:08;96955.81;;;3.93;100.00
75521;BME280;64102;48.628;9.002;2024-02-21T00:02:33;96958.16;;;3.97;100.00
75521;BME280;64102;48.628;9.002;2024-02-21T00:04:58;96962.34;;;3.98;100.00
75521;BME280;64102;48.628;9.002;2024-02-21T00:07:24;96958.25;;;3.96;100.00
75521;BME280;64102;48.628;9.002;2024-02-21T00:09:49;96952.47;;;3.92;100.00
75521;BME280;64102;48.628;9.002;2024-02-21T00:12:15;96957.72;;;3.89;100.00
75521;BME280;64102;48.628;9.002;2024-02-21T00:14:40;96949.09;;;3.92;100.00
75521;BME280;64102;48.628;9.002;2024-02-21T00:17:06;96958.09;;;3.99;100.00
75521;BME280;64102;48.628;9.002;2024-02-21T00:19:31;96954.88;;;3.95;100.00
75521;BME280;64102;48.628;9.002;2024-02-21T00:21:56;96948.75;;;3.98;100.00
75521;BME280;64102;48.628;9.002;2024-02-21T00:24:22;96942.75;;;3.99;100.00
75521;BME280;64102;48.628;9.002;2024-02-21T00:26:47;96939.47;;;3.97;100.00
75521;BME280;64102;48.628;9.002;2024-02-21T00:29:12;96938.56;;;3.98;100.00
75521;BME280;64102;48.628;9.002;2024-02-21T00:31:38;96919.63;;;4.02;100.00
75521;BME280;64102;48.628;9.002;2024-02-21T00:34:03;96918.00;;;4.01;100.00
75521;BME280;64102;48.628;9.002;2024-02-21T00:36:28;96915.28;;;4.04;100.00
75521;BME280;64102;48.628;9.002;2024-02-21T00:38:54;96920.13;;;4.09;100.00
75521;BME280;64102;48.628;9.002;2024-02-21T00:41:19;96912.31;;;4.12;100.00
75521;BME280;64102;48.628;9.002;2024-02-21T00:43:44;96919.06;;;4.13;100.00
75521;BME280;64102;48.628;9.002;2024-02-21T00:46:10;96926.81;;;4.11;100.00
75521;BME280;64102;48.628;9.002;2024-02-21T00:48:35;96922.63;;;4.10;100.00
75521;BME280;64102;48.628;9.002;2024-02-21T00:51:00;96914.22;;;4.08;100.00
75521;BME280;64102;48.628;9.002;2024-02-21T00:53:26;96915.78;;;4.11;100.00
75521;BME280;64102;48.628;9.002;2024-02-21T00:55:51;96909.94;;;4.09;100.00
75521;BME280;64102;48.628;9.002;2024-02-21T00:58:16;96906.38;;;4.11;100.00
75521;BME280;64102;48.628;9.002;2024-02-21T01:00:42;96905.56;;;4.11;100.00
75521;BME280;64102;48.628;9.002;2024-02-21T01:03:07;96901.44;;;4.08;100.00
75521;BME280;64102;48.628;9.002;2024-02-21T01:05:32;96912.78;;;4.02;100.00
75521;BME280;64102;48.628;9.002;2024-02-21T01:07:58;96905.34;;;3.98;100.00
75521;BME280;64102;48.628;9.002;2024-02-21T01:10:23;96897.28;;;3.90;100.00
75521;BME280;64102;48.628;9.002;2024-02-21T01:12:49;96893.22;;;3.86;100.00
75521;BME280;64102;48.628;9.002;2024-02-21T01:15:14;96898.50;;;3.83;100.00
75521;BME280;64102;48.628;9.002;2024-02-21T01:17:39;96883.19;;;3.83;100.00
75521;BME280;64102;48.628;9.002;2024-02-21T01:20:06;96879.88;;;3.81;100.00
75521;BME280;64102;48.628;9.002;2024-02-21T01:22:32;96875.34;;;3.86;100.00
75521;BME280;64102;48.628;9.002;2024-02-21T01:24:57;96874.28;;;3.90;100.00
75521;BME280;64102;48.628;9.002;2024-02-21T01:27:22;96870.00;;;3.90;100.00
75521;BME280;64102;48.628;9.002;2024-02-21T01:29:48;96864.06;;;3.90;100.00
75521;BME280;64102;48.628;9.002;2024-02-21T01:32:15;96851.31;;;3.90;100.00
75521;BME280;64102;48.628;9.002;2024-02-21T01:34:40;96846.22;;;3.90;100.00
75521;BME280;64102;48.628;9.002;2024-02-21T01:37:05;96851.41;;;3.88;100.00
75521;BME280;64102;48.628;9.002;2024-02-21T01:39:32;96842.00;;;3.89;100.00
75521;BME280;64102;48.628;9.002;2024-02-21T01:41:58;96842.09;;;3.87;100.00
75521;BME280;64102;48.628;9.002;2024-02-21T01:44:24;96837.13;;;3.84;100.00
75521;BME280;64102;48.628;9.002;2024-02-21T01:46:50;96836.16;;;3.87;100.00
75521;BME280;64102;48.628;9.002;2024-02-21T01:49:17;96838.94;;;3.82;100.00
75521;BME280;64102;48.628;9.002;2024-02-21T01:51:42;96829.88;;;3.77;100.00
75521;BME280;64102;48.628;9.002;2024-02-21T01:54:08;96831.75;;;3.73;100.00
75521;BME280;64102;48.628;9.002;2024-02-21T01:56:34;96824.50;;;3.66;100.00
75521;BME280;64102;48.628;9.002;2024-02-21T01:59:00;96817.16;;;3.59;100.00
75521;BME280;64102;48.628;9.002;2024-02-21T02:01:25;96809.72;;;3.55;100.00
75521;BME280;64102;48.628;9.002;2024-02-21T02:03:51;96807.25;;;3.53;100.00
75521;BME280;64102;48.628;9.002;2024-02-21T02:06:17;96802.91;;;3.55;100.00
75521;BME280;64102;48.628;9.002;2024-02-21T02:08:43;96791.88;;;3.55;100.00
75521;BME280;64102;48.628;9.002;2024-02-21T02:11:09;96785.88;;;3.56;100.00
75521;BME280;64102;48.628;9.002;2024-02-21T02:13:35;96798.41;;;3.60;100.00
75521;BME280;64102;48.628;9.002;2024-02-21T02:16:00;96792.41;;;3.62;100.00
75521;BME280;64102;48.628;9.002;2024-02-21T02:18:25;96785.72;;;3.59;100.00
75521;BME280;64102;48.628;9.002;2024-02-21T02:20:51;96779.88;;;3.57;100.00
75521;BME280;64102;48.628;9.002;2024-02-21T02:23:24;96778.94;;;3.58;100.00
75521;BME280;64102;48.628;9.002;2024-02-21T02:25:50;96771.16;;;3.61;100.00
75521;BME280;64102;48.628;9.002;2024-02-21T02:28:17;96771.81;;;3.65;100.00
75521;BME280;64102;48.628;9.002;2024-02-21T02:30:43;96761.50;;;3.66;100.00
75521;BME280;64102;48.628;9.002;2024-02-21T02:33:08;96759.88;;;3.65;100.00
75521;BME280;64102;48.628;9.002;2024-02-21T02:35:34;96761.59;;;3.65;100.00
75521;BME280;64102;48.628;9.002;2024-02-21T02:38:02;96766.53;;;3.68;100.00
75521;BME280;64102;48.628;9.002;2024-02-21T02:40:27;96759.78;;;3.67;100.00
75521;BME280;64102;48.628;9.002;2024-02-21T02:42:53;96761.44;;;3.68;100.00
75521;BME280;64102;48.628;9.002;2024-02-21T02:45:21;96758.97;;;3.66;100.00
75521;BME280;64102;48.628;9.002;2024-02-21T02:47:47;96748.84;;;3.65;100.00
75521;BME280;64102;48.628;9.002;2024-02-21T02:50:13;96742.84;;;3.66;100.00
75521;BME280;64102;48.628;9.002;2024-02-21T02:52:39;96736.75;;;3.68;100.00
75521;BME280;64102;48.628;9.002;2024-02-21T02:55:05;96740.72;;;3.74;100.00
75521;BME280;64102;48.628;9.002;2024-02-21T02:57:31;96730.31;;;3.77;100.00
75521;BME280;64102;48.628;9.002;2024-02-21T02:59:56;96725.41;;;3.74;100.00
75521;BME280;64102;48.628;9.002;2024-02-21T03:02:21;96722.84;;;3.74;100.00
75521;BME280;64102;48.628;9.002;2024-02-21T03:04:47;96716.09;;;3.73;100.00
75521;BME280;64102;48.628;9.002;2024-02-21T03:07:14;96720.44;;;3.71;100.00
75521;BME280;64102;48.628;9.002;2024-02-21T03:09:39;96727.13;;;3.73;100.00
75521;BME280;64102;48.628;9.002;2024-02-21T03:12:09;96728.84;;;3.73;100.00
75521;BME280;64102;48.628;9.002;2024-02-21T03:14:34;96715.91;;;3.76;100.00
75521;BME280;64102;48.628;9.002;2024-02-21T03:17:00;96707.69;;;3.86;100.00
75521;BME280;64102;48.628;9.002;2024-02-21T03:19:27;96705.72;;;3.91;100.00
75521;BME280;64102;48.628;9.002;2024-02-21T03:21:53;96701.44;;;3.92;100.00
75521;BME280;64102;48.628;9.002;2024-02-21T03:24:18;96693.13;;;3.88;100.00
75521;BME280;64102;48.628;9.002;2024-02-21T03:26:44;96706.22;;;3.82;100.00
75521;BME280;64102;48.628;9.002;2024-02-21T03:29:11;96702.19;;;3.78;100.00
75521;BME280;64102;48.628;9.002;2024-02-21T03:31:37;96699.88;;;3.74;100.00
75521;BME280;64102;48.628;9.002;2024-02-21T03:34:02;96690.50;;;3.74;100.00
75521;BME280;64102;48.628;9.002;2024-02-21T03:36:28;96685.47;;;3.73;100.00
75521;BME280;64102;48.628;9.002;2024-02-21T03:38:56;96689.81;;;3.71;100.00
75521;BME280;64102;48.628;9.002;2024-02-21T03:41:22;96687.25;;;3.71;100.00
75521;BME280;64102;48.628;9.002;2024-02-21T03:43:47;96698.16;;;3.74;100.00
75521;BME280;64102;48.628;9.002;2024-02-21T03:46:13;96687.19;;;3.72;100.00
75521;BME280;64102;48.628;9.002;2024-02-21T03:48:38;96687.13;;;3.74;100.00
75521;BME280;64102;48.628;9.002;2024-02-21T03:51:04;96691.38;;;3.73;100.00
75521;BME280;64102;48.628;9.002;2024-02-21T03:53:30;96687.84;;;3.76;100.00
75521;BME280;64102;48.628;9.002;2024-02-21T03:55:55;96688.53;;;3.79;100.00
75521;BME280;64102;48.628;9.002;2024-02-21T03:58:21;96694.28;;;3.83;100.00
75521;BME280;64102;48.628;9.002;2024-02-21T04:00:47;96695.94;;;3.84;100.00
75521;BME280;64102;48.628;9.002;2024-02-21T04:03:12;96689.31;;;3.80;100.00
75521;BME280;64102;48.628;9.002;2024-02-21T04:05:38;96687.84;;;3.76;100.00
75521;BME280;64102;48.628;9.002;2024-02-21T04:08:04;96676.00;;;3.75;100.00
75521;BME280;64102;48.628;9.002;2024-02-21T04:10:30;96673.44;;;3.75;100.00
75521;BME280;64102;48.628;9.002;2024-02-21T04:12:55;96672.03;;;3.69;100.00
75521;BME280;64102;48.628;9.002;2024-02-21T04:15:21;96660.34;;;3.65;100.00
75521;BME280;64102;48.628;9.002;2024-02-21T04:17:46;96652.13;;;3.60;100.00
75521;BME280;64102;48.628;9.002;2024-02-21T04:20:16;96657.41;;;3.57;100.00
75521;BME280;64102;48.628;9.002;2024-02-21T04:22:45;96658.38;;;3.54;100.00
75521;BME280;64102;48.628;9.002;2024-02-21T04:25:10;96652.38;;;3.55;100.00
75521;BME280;64102;48.628;9.002;2024-02-21T04:27:39;96654.19;;;3.69;100.00
75521;BME280;64102;48.628;9.002;2024-02-21T04:30:05;96650.88;;;3.67;100.00
75521;BME280;64102;48.628;9.002;2024-02-21T04:32:31;96649.31;;;3.65;100.00
75521;BME280;64102;48.628;9.002;2024-02-21T04:34:56;96642.25;;;3.70;100.00
75521;BME280;64102;48.628;9.002;2024-02-21T04:37:22;96636.38;;;3.68;100.00
75521;BME280;64102;48.628;9.002;2024-02-21T04:39:50;96640.66;;;3.67;100.00
75521;BME280;64102;48.628;9.002;2024-02-21T04:42:16;96640.59;;;3.69;100.00
75521;BME280;64102;48.628;9.002;2024-02-21T04:44:42;96643.31;;;3.66;100.00
75521;BME280;64102;48.628;9.002;2024-02-21T04:47:07;96648.50;;;3.64;100.00
75521;BME280;64102;48.628;9.002;2024-02-21T04:49:33;96639.59;;;3.55;100.00
75521;BME280;64102;48.628;9.002;2024-02-21T04:51:58;96623.72;;;3.50;100.00
75521;BME280;64102;48.628;9.002;2024-02-21T04:54:24;96629.81;;;3.48;100.00
75521;BME280;64102;48.628;9.002;2024-02-21T04:56:50;96626.75;;;3.41;100.00
75521;BME280;64102;48.628;9.002;2024-02-21T04:59:15;96633.66;;;3.39;100.00
75521;BME280;64102;48.628;9.002;2024-02-21T05:01:41;96629.56;;;3.37;100.00
75521;BME280;64102;48.628;9.002;2024-02-21T05:04:06;96646.41;;;3.39;100.00
75521;BME280;64102;48.628;9.002;2024-02-21T05:06:31;96640.75;;;3.34;100.00
75521;BME280;64102;48.628;9.002;2024-02-21T05:08:57;96636.78;;;3.29;100.00
75521;BME280;64102;48.628;9.002;2024-02-21T05:11:23;96640.66;;;3.20;100.00
75521;BME280;64102;48.628;9.002;2024-02-21T05:13:49;96642.69;;;3.13;100.00
75521;BME280;64102;48.628;9.002;2024-02-21T05:16:15;96649.91;;;3.05;100.00
75521;BME280;64102;48.628;9.002;2024-02-21T05:18:40;96652.75;;;2.99;100.00
75521;BME280;64102;48.628;9.002;2024-02-21T05:21:07;96643.13;;;2.89;100.00
75521;BME280;64102;48.628;9.002;2024-02-21T05:23:33;96626.34;;;2.85;100.00
75521;BME280;64102;48.628;9.002;2024-02-21T05:25:58;96619.59;;;2.84;100.00
75521;BME280;64102;48.628;9.002;2024-02-21T05:28:23;96621.09;;;2.88;100.00
75521;BME280;64102;48.628;9.002;2024-02-21T05:30:49;96623.06;;;2.83;100.00
75521;BME280;64102;48.628;9.002;2024-02-21T05:33:14;96606.34;;;2.77;100.00
75521;BME280;64102;48.628;9.002;2024-02-21T05:35:46;96596.75;;;2.82;100.00
75521;BME280;64102;48.628;9.002;2024-02-21T05:38:11;96586.66;;;2.81;100.00
75521;BME280;64102;48.628;9.002;2024-02-21T05:40:37;96593.47;;;2.80;100.00
75521;BME280;64102;48.628;9.002;2024-02-21T05:43:02;96591.50;;;2.85;100.00
75521;BME280;64102;48.628;9.002;2024-02-21T05:45:28;96584.81;;;2.83;100.00
75521;BME280;64102;48.628;9.002;2024-02-21T05:47:53;96582.09;;;2.86;100.00
75521;BME280;64102;48.628;9.002;2024-02-21T05:50:19;96580.38;;;2.86;100.00
75521;BME280;64102;48.628;9.002;2024-02-21T05:52:46;96572.66;;;2.88;100.00
75521;BME280;64102;48.628;9.002;2024-02-21T05:55:11;96574.22;;;2.90;100.00
75521;BME280;64102;48.628;9.002;2024-02-21T05:57:36;96581.88;;;2.90;100.00
75521;BME280;64102;48.628;9.002;2024-02-21T06:00:06;96574.31;;;2.89;100.00
75521;BME280;64102;48.628;9.002;2024-02-21T06:02:31;96568.88;;;2.95;100.00
75521;BME280;64102;48.628;9.002;2024-02-21T06:05:00;96572.19;;;2.97;100.00
75521;BME280;64102;48.628;9.002;2024-02-21T06:07:25;96573.09;;;2.96;100.00
75521;BME280;64102;48.628;9.002;2024-02-21T06:09:50;96565.53;;;2.94;100.00
75521;BME280;64102;48.628;9.002;2024-02-21T06:12:16;96570.47;;;2.97;100.00
75521;BME280;64102;48.628;9.002;2024-02-21T06:14:41;96564.38;;;3.00;100.00
75521;BME280;64102;48.628;9.002;2024-02-21T06:17:06;96562.41;;;3.05;100.00
75521;BME280;64102;48.628;9.002;2024-02-21T06:19:32;96562.81;;;3.13;100.00
75521;BME280;64102;48.628;9.002;2024-02-21T06:21:57;96571.28;;;3.13;100.00
75521;BME280;64102;48.628;9.002;2024-02-21T06:24:22;96568.75;;;3.13;100.00
75521;BME280;64102;48.628;9.002;2024-02-21T06:26:48;96578.03;;;3.14;100.00
75521;BME280;64102;48.628;9.002;2024-02-21T06:29:13;96580.41;;;3.17;100.00
75521;BME280;64102;48.628;9.002;2024-02-21T06:31:39;96576.38;;;3.13;100.00
75521;BME280;64102;48.628;9.002;2024-02-21T06:34:04;96579.34;;;3.22;100.00
75521;BME280;64102;48.628;9.002;2024-02-21T06:36:30;96585.28;;;3.22;100.00
75521;BME280;64102;48.628;9.002;2024-02-21T06:38:55;96583.66;;;3.21;100.00
75521;BME280;64102;48.628;9.002;2024-02-21T06:41:20;96581.81;;;3.23;100.00
75521;BME280;64102;48.628;9.002;2024-02-21T06:43:47;96582.47;;;3.27;100.00
75521;BME280;64102;48.628;9.002;2024-02-21T06:46:28;96581.34;;;3.32;100.00
75521;BME280;64102;48.628;9.002;2024-02-21T06:48:54;96582.81;;;3.36;100.00
75521;BME280;64102;48.628;9.002;2024-02-21T06:51:21;96584.41;;;3.39;100.00
75521;BME280;64102;48.628;9.002;2024-02-21T06:53:47;96575.25;;;3.50;100.00
75521;BME280;64102;48.628;9.002;2024-02-21T06:56:12;96572.47;;;3.85;100.00
75521;BME280;64102;48.628;9.002;2024-02-21T06:58:38;96575.00;;;4.00;100.00
75521;BME280;64102;48.628;9.002;2024-02-21T07:01:03;96572.53;;;3.99;100.00
75521;BME280;64102;48.628;9.002;2024-02-21T07:03:29;96568.88;;;4.03;100.00
75521;BME280;64102;48.628;9.002;2024-02-21T07:05:54;96567.47;;;4.13;100.00
75521;BME280;64102;48.628;9.002;2024-02-21T07:08:19;96579.16;;;4.17;100.00
75521;BME280;64102;48.628;9.002;2024-02-21T07:10:45;96568.31;;;4.28;100.00
75521;BME280;64102;48.628;9.002;2024-02-21T07:13:10;96567.25;;;4.60;100.00
75521;BME280;64102;48.628;9.002;2024-02-21T07:15:35;96570.44;;;4.78;100.00
75521;BME280;64102;48.628;9.002;2024-02-21T07:18:02;96565.88;;;4.83;100.00
75521;BME280;64102;48.628;9.002;2024-02-21T07:20:27;96571.47;;;4.89;100.00
75521;BME280;64102;48.628;9.002;2024-02-21T07:22:53;96568.09;;;5.03;100.00
75521;BME280;64102;48.628;9.002;2024-02-21T07:25:18;96569.69;;;5.18;100.00
75521;BME280;64102;48.628;9.002;2024-02-21T07:27:44;96571.88;;;5.38;100.00
75521;BME280;64102;48.628;9.002;2024-02-21T07:30:10;96565.38;;;5.33;100.00
75521;BME280;64102;48.628;9.002;2024-02-21T07:32:35;96557.28;;;5.53;100.00
75521;BME280;64102;48.628;9.002;2024-02-21T07:35:01;96554.63;;;5.55;100.00
75521;BME280;64102;48.628;9.002;2024-02-21T07:37:26;96556.78;;;6.14;100.00
75521;BME280;64102;48.628;9.002;2024-02-21T07:39:52;96542.31;;;6.13;100.00
75521;BME280;64102;48.628;9.002;2024-02-21T07:42:17;96544.00;;;6.40;100.00
75521;BME280;64102;48.628;9.002;2024-02-21T07:44:42;96534.97;;;6.34;100.00
75521;BME280;64102;48.628;9.002;2024-02-21T07:47:08;96539.16;;;6.22;100.00
75521;BME280;64102;48.628;9.002;2024-02-21T07:49:40;96536.66;;;5.69;100.00
75521;BME280;64102;48.628;9.002;2024-02-21T07:52:06;96527.44;;;5.66;100.00
75521;BME280;64102;48.628;9.002;2024-02-21T07:54:31;96515.94;;;5.32;100.00
75521;BME280;64102;48.628;9.002;2024-02-21T07:56:56;96508.31;;;5.45;100.00
75521;BME280;64102;48.628;9.002;2024-02-21T07:59:22;96512.75;;;5.56;100.00
75521;BME280;64102;48.628;9.002;2024-02-21T08:01:47;96516.97;;;5.57;100.00
75521;BME280;64102;48.628;9.002;2024-02-21T08:04:12;96516.63;;;5.49;100.00
75521;BME280;64102;48.628;9.002;2024-02-21T08:06:38;96510.03;;;5.71;100.00
75521;BME280;64102;48.628;9.002;2024-02-21T08:09:03;96517.81;;;5.70;100.00
75521;BME280;64102;48.628;9.002;2024-02-21T08:11:28;96524.34;;;5.88;100.00
75521;BME280;64102;48.628;9.002;2024-02-21T08:13:54;96514.25;;;5.85;100.00
75521;BME280;64102;48.628;9.002;2024-02-21T08:16:19;96514.34;;;5.71;100.00
75521;BME280;64102;48.628;9.002;2024-02-21T08:18:44;96507.00;;;5.79;100.00
75521;BME280;64102;48.628;9.002;2024-02-21T08:21:10;96513.63;;;6.08;100.00
75521;BME280;64102;48.628;9.002;2024-02-21T08:23:35;96519.34;;;6.12;100.00
75521;BME280;64102;48.628;9.002;2024-02-21T08:26:03;96517.63;;;6.25;100.00
75521;BME280;64102;48.628;9.002;2024-02-21T08:28:29;96512.72;;;6.09;100.00
75521;BME280;64102;48.628;9.002;2024-02-21T08:30:54;96512.31;;;6.15;100.00
75521;BME280;64102;48.628;9.002;2024-02-21T08:33:20;96503.41;;;6.46;100.00
75521;BME280;64102;48.628;9.002;2024-02-21T08:35:49;96497.75;;;6.41;100.00
75521;BME280;64102;48.628;9.002;2024-02-21T08:38:15;96498.56;;;6.16;100.00
75521;BME280;64102;48.628;9.002;2024-02-21T08:40:40;96497.47;;;6.20;100.00
75521;BME280;64102;48.628;9.002;2024-02-21T08:43:05;96499.06;;;6.09;100.00
75521;BME280;64102;48.628;9.002;2024-02-21T08:45:31;96481.66;;;6.14;100.00
75521;BME280;64102;48.628;9.002;2024-02-21T08:47:56;96490.56;;;6.21;100.00
75521;BME280;64102;48.628;9.002;2024-02-21T08:50:21;96482.06;;;6.46;100.00
75521;BME280;64102;48.628;9.002;2024-02-21T08:52:47;96488.41;;;6.53;100.00
75521;BME280;64102;48.628;9.002;2024-02-21T08:55:12;96488.44;;;6.15;100.00
75521;BME280;64102;48.628;9.002;2024-02-21T08:57:38;96492.03;;;6.38;100.00
75521;BME280;64102;48.628;9.002;2024-02-21T09:00:05;96472.72;;;6.57;100.00
75521;BME280;64102;48.628;9.002;2024-02-21T09:02:41;96471.50;;;6.50;100.00
75521;BME280;64102;48.628;9.002;2024-02-21T09:05:09;96459.41;;;6.65;100.00
75521;BME280;64102;48.628;9.002;2024-02-21T09:07:35;96461.38;;;6.85;100.00
75521;BME280;64102;48.628;9.002;2024-02-21T09:10:00;96451.81;;;7.00;100.00
75521;BME280;64102;48.628;9.002;2024-02-21T09:12:26;96456.25;;;7.22;100.00
75521;BME280;64102;48.628;9.002;2024-02-21T09:14:51;96446.56;;;7.49;98.93
75521;BME280;64102;48.628;9.002;2024-02-21T09:17:17;96446.09;;;7.55;95.13
75521;BME280;64102;48.628;9.002;2024-02-21T09:19:43;96448.31;;;7.48;95.96
75521;BME280;64102;48.628;9.002;2024-02-21T09:22:09;96438.38;;;7.44;96.67
75521;BME280;64102;48.628;9.002;2024-02-21T09:24:34;96437.41;;;7.69;96.24
75521;BME280;64102;48.628;9.002;2024-02-21T09:27:00;96435.88;;;8.12;94.15
75521;BME280;64102;48.628;9.002;2024-02-21T09:29:25;96442.13;;;8.32;88.98
75521;BME280;64102;48.628;9.002;2024-02-21T09:31:51;96433.59;;;8.42;86.48
75521;BME280;64102;48.628;9.002;2024-02-21T09:34:17;96433.38;;;8.34;87.40
75521;BME280;64102;48.628;9.002;2024-02-21T09:36:42;96428.63;;;8.17;86.63
75521;BME280;64102;48.628;9.002;2024-02-21T09:39:08;96436.28;;;8.52;86.46
75521;BME280;64102;48.628;9.002;2024-02-21T09:41:38;96435.81;;;8.58;86.44
75521;BME280;64102;48.628;9.002;2024-02-21T09:44:08;96425.56;;;9.12;80.71
75521;BME280;64102;48.628;9.002;2024-02-21T09:46:51;96423.81;;;9.44;77.83
75521;BME280;64102;48.628;9.002;2024-02-21T09:49:33;96423.84;;;10.07;72.94
75521;BME280;64102;48.628;9.002;2024-02-21T09:52:03;96417.25;;;10.35;70.27
75521;BME280;64102;48.628;9.002;2024-02-21T09:54:29;96417.88;;;10.57;68.15
75521;BME280;64102;48.628;9.002;2024-02-21T09:56:59;96417.50;;;10.71;65.40
75521;BME280;64102;48.628;9.002;2024-02-21T09:59:31;96412.13;;;10.94;63.23
75521;BME280;64102;48.628;9.002;2024-02-21T10:01:56;96402.53;;;11.15;63.37
75521;BME280;64102;48.628;9.002;2024-02-21T10:04:22;96407.84;;;12.00;60.18
75521;BME280;64102;48.628;9.002;2024-02-21T10:06:47;96401.59;;;11.83;58.99
75521;BME280;64102;48.628;9.002;2024-02-21T10:09:25;96405.81;;;11.55;60.20
75521;BME280;64102;48.628;9.002;2024-02-21T10:11:55;96401.56;;;11.93;58.31
75521;BME280;64102;48.628;9.002;2024-02-21T10:14:20;96391.91;;;11.08;61.08
75521;BME280;64102;48.628;9.002;2024-02-21T10:16:57;96390.69;;;11.70;59.64
75521;BME280;64102;48.628;9.002;2024-02-21T10:19:25;96383.34;;;11.65;58.74
75521;BME280;64102;48.628;9.002;2024-02-21T10:22:04;96375.56;;;10.79;60.68
75521;BME280;64102;48.628;9.002;2024-02-21T10:24:33;96366.53;;;10.64;62.46
75521;BME280;64102;48.628;9.002;2024-02-21T10:27:06;96355.00;;;9.98;63.35
75521;BME280;64102;48.628;9.002;2024-02-21T10:29:36;96363.06;;;10.14;63.60
75521;BME280;64102;48.628;9.002;2024-02-21T10:32:11;96355.53;;;10.01;62.65
75521;BME280;64102;48.628;9.002;2024-02-21T10:34:38;96362.19;;;10.64;61.64
75521;BME280;64102;48.628;9.002;2024-02-21T10:37:05;96355.94;;;10.67;61.49
75521;BME280;64102;48.628;9.002;2024-02-21T10:39:36;96356.53;;;10.40;60.21
75521;BME280;64102;48.628;9.002;2024-02-21T10:42:03;96349.63;;;10.41;57.90
75521;BME280;64102;48.628;9.002;2024-02-21T10:44:33;96340.88;;;10.22;57.33
75521;BME280;64102;48.628;9.002;2024-02-21T10:47:12;96340.00;;;10.12;57.36
75521;BME280;64102;48.628;9.002;2024-02-21T10:49:44;96343.25;;;10.35;57.10
75521;BME280;64102;48.628;9.002;2024-02-21T10:52:36;96329.91;;;10.89;56.45
75521;BME280;64102;48.628;9.002;2024-02-21T10:55:19;96338.88;;;10.75;55.60
75521;BME280;64102;48.628;9.002;2024-02-21T10:57:46;96322.81;;;10.72;57.75
75521;BME280;64102;48.628;9.002;2024-02-21T11:00:12;96325.56;;;10.80;57.98
75521;BME280;64102;48.628;9.002;2024-02-21T11:02:39;96323.53;;;10.93;55.67
75521;BME280;64102;48.628;9.002;2024-02-21T11:05:05;96320.25;;;11.39;54.80
75521;BME280;64102;48.628;9.002;2024-02-21T11:07:32;96320.66;;;11.35;53.91
75521;BME280;64102;48.628;9.002;2024-02-21T11:09:58;96312.50;;;11.39;54.51
75521;BME280;64102;48.628;9.002;2024-02-21T11:12:24;96314.44;;;11.18;53.80
75521;BME280;64102;48.628;9.002;2024-02-21T11:14:51;96292.69;;;10.82;53.38
75521;BME280;64102;48.628;9.002;2024-02-21T11:17:17;96294.56;;;10.90;54.26
75521;BME280;64102;48.628;9.002;2024-02-21T11:19:43;96286.44;;;10.75;52.96
75521;BME280;64102;48.628;9.002;2024-02-21T11:22:20;96283.72;;;10.96;53.33
75521;BME280;64102;48.628;9.002;2024-02-21T11:24:47;96285.19;;;11.17;53.64
75521;BME280;64102;48.628;9.002;2024-02-21T11:27:15;96274.31;;;10.95;52.95
75521;BME280;64102;48.628;9.002;2024-02-21T11:29:47;96259.00;;;10.93;53.27
75521;BME280;64102;48.628;9.002;2024-02-21T11:32:17;96252.16;;;10.54;52.52
75521;BME280;64102;48.628;9.002;2024-02-21T11:35:04;96255.31;;;10.96;54.16
75521;BME280;64102;48.628;9.002;2024-02-21T11:37:34;96249.69;;;10.33;54.44
75521;BME280;64102;48.628;9.002;2024-02-21T11:40:02;96254.31;;;10.39;54.33
75521;BME280;64102;48.628;9.002;2024-02-21T11:42:29;96251.91;;;10.07;55.50
75521;BME280;64102;48.628;9.002;2024-02-21T11:44:59;96247.47;;;10.19;56.12
75521;BME280;64102;48.628;9.002;2024-02-21T11:47:25;96242.22;;;10.30;55.23
75521;BME280;64102;48.628;9.002;2024-02-21T11:49:51;96229.59;;;10.17;55.42
75521;BME280;64102;48.628;9.002;2024-02-21T11:52:21;96229.91;;;10.53;54.20
75521;BME280;64102;48.628;9.002;2024-02-21T11:54:48;96228.06;;;11.40;53.00
75521;BME280;64102;48.628;9.002;2024-02-21T11:57:13;96222.41;;;11.63;51.13
75521;BME280;64102;48.628;9.002;2024-02-21T11:59:40;96217.19;;;11.36;50.01
75521;BME280;64102;48.628;9.002;2024-02-21T12:02:06;96216.50;;;11.34;50.29
75521;BME280;64102;48.628;9.002;2024-02-21T12:04:32;96209.81;;;11.51;49.98
75521;BME280;64102;48.628;9.002;2024-02-21T12:06:58;96203.38;;;11.64;49.35
75521;BME280;64102;48.628;9.002;2024-02-21T12:09:24;96189.69;;;11.91;48.30
75521;BME280;64102;48.628;9.002;2024-02-21T12:12:01;96185.59;;;12.34;47.71
75521;BME280;64102;48.628;9.002;2024-02-21T12:14:29;96189.31;;;12.67;46.73
75521;BME280;64102;48.628;9.002;2024-02-21T12:16:55;96178.53;;;13.15;46.90
75521;BME280;64102;48.628;9.002;2024-02-21T12:19:21;96171.63;;;13.23;46.16
75521;BME280;64102;48.628;9.002;2024-02-21T12:21:48;96163.34;;;13.20;45.43
75521;BME280;64102;48.628;9.002;2024-02-21T12:24:16;96160.94;;;12.83;45.50
75521;BME280;64102;48.628;9.002;2024-02-21T12:26:42;96156.47;;;12.67;45.35
75521;BME280;64102;48.628;9.002;2024-02-21T12:29:08;96152.09;;;12.68;45.44
75521;BME280;64102;48.628;9.002;2024-02-21T12:31:37;96147.94;;;12.04;44.43
75521;BME280;64102;48.628;9.002;2024-02-21T12:34:03;96135.16;;;11.75;44.13
75521;BME280;64102;48.628;9.002;2024-02-21T12:36:30;96139.88;;;11.52;42.81
75521;BME280;64102;48.628;9.002;2024-02-21T12:38:55;96143.25;;;11.62;42.97
75521;BME280;64102;48.628;9.002;2024-02-21T12:41:20;96133.22;;;11.13;44.37
75521;BME280;64102;48.628;9.002;2024-02-21T12:43:46;96122.53;;;10.98;44.25
75521;BME280;64102;48.628;9.002;2024-02-21T12:46:12;96118.06;;;11.37;45.35
75521;BME280;64102;48.628;9.002;2024-02-21T12:48:37;96119.84;;;11.64;45.43
75521;BME280;64102;48.628;9.002;2024-02-21T12:51:03;96120.69;;;11.55;45.14
75521;BME280;64102;48.628;9.002;2024-02-21T12:53:29;96104.91;;;11.58;46.03
75521;BME280;64102;48.628;9.002;2024-02-21T12:55:55;96099.38;;;11.80;45.81